sensor_id;sensor_type;location;lat;lon;timestamp;P1;durP1;ratioP1;P2;durP2;ratioP2
15536;SDS011;7870;52.448;13.270;2023-04-01T00:01:11;5.10;;;3.00;;
15536;SDS011;7870;52.448;13.270;2023-04-01T00:03:42;4.82;;;3.00;;
15536;SDS011;7870;52.448;13.270;2023-04-01T00:06:11;5.57;;;2.80;;
15536;SDS011;7870;52.448;13.270;2023-04-01T00:08:39;4.45;;;2.72;;
15536;SDS011;7870;52.448;13.270;2023-04-01T00:11:06;6.50;;;2.92;;
15536;SDS011;7870;52.448;13.270;2023-04-01T00:13:32;5.90;;;2.83;;
15536;SDS011;7870;52.448;13.270;2023-04-01T00:15:59;5.57;;;2.92;;
15536;SDS011;7870;52.448;13.270;2023-04-01T00:18:29;5.78;;;2.47;;
15536;SDS011;7870;52.448;13.270;2023-04-01T00:20:56;4.97;;;2.80;;
15536;SDS011;7870;52.448;13.270;2023-04-01T00:23:22;6.07;;;3.13;;
15536;SDS011;7870;52.448;13.270;2023-04-01T00:25:49;6.88;;;2.85;;
15536;SDS011;7870;52.448;13.270;2023-04-01T00:28:16;6.55;;;2.80;;
15536;SDS011;7870;52.448;13.270;2023-04-01T00:30:43;6.20;;;3.20;;
15536;SDS011;7870;52.448;13.270;2023-04-01T00:33:10;7.65;;;3.30;;
15536;SDS011;7870;52.448;13.270;2023-04-01T00:35:37;5.95;;;3.30;;
15536;SDS011;7870;52.448;13.270;2023-04-01T00:38:04;4.97;;;2.90;;
15536;SDS011;7870;52.448;13.270;2023-04-01T00:40:33;4.72;;;2.60;;
15536;SDS011;7870;52.448;13.270;2023-04-01T00:43:01;3.67;;;2.72;;
15536;SDS011;7870;52.448;13.270;2023-04-01T00:45:30;4.28;;;2.40;;
15536;SDS011;7870;52.448;13.270;2023-04-01T00:47:59;6.78;;;2.47;;
15536;SDS011;7870;52.448;13.270;2023-04-01T00:50:29;5.15;;;2.50;;
15536;SDS011;7870;52.448;13.270;2023-04-01T00:52:57;5.13;;;2.97;;
15536;SDS011;7870;52.448;13.270;2023-04-01T00:55:25;5.50;;;3.10;;
15536;SDS011;7870;52.448;13.270;2023-04-01T00:57:53;6.00;;;2.72;;
15536;SDS011;7870;52.448;13.270;2023-04-01T01:00:23;6.43;;;2.88;;
15536;SDS011;7870;52.448;13.270;2023-04-01T01:02:49;5.07;;;2.67;;
15536;SDS011;7870;52.448;13.270;2023-04-01T01:05:17;4.32;;;2.55;;
15536;SDS011;7870;52.448;13.270;2023-04-01T01:07:47;4.85;;;2.78;;
15536;SDS011;7870;52.448;13.270;2023-04-01T01:10:26;6.80;;;3.10;;
15536;SDS011;7870;52.448;13.270;2023-04-01T01:13:10;5.65;;;2.95;;
15536;SDS011;7870;52.448;13.270;2023-04-01T01:24:08;4.93;;;2.25;;
15536;SDS011;7870;52.448;13.270;2023-04-01T01:26:51;5.57;;;2.42;;
15536;SDS011;7870;52.448;13.270;2023-04-01T01:31:59;4.70;;;2.75;;
15536;SDS011;7870;52.448;13.270;2023-04-01T01:37:21;5.15;;;2.67;;
15536;SDS011;7870;52.448;13.270;2023-04-01T01:39:52;5.45;;;3.10;;
15536;SDS011;7870;52.448;13.270;2023-04-01T01:42:22;4.53;;;2.45;;
15536;SDS011;7870;52.448;13.270;2023-04-01T01:44:49;4.97;;;2.78;;
15536;SDS011;7870;52.448;13.270;2023-04-01T01:47:17;4.35;;;2.30;;
15536;SDS011;7870;52.448;13.270;2023-04-01T01:49:45;7.65;;;2.85;;
15536;SDS011;7870;52.448;13.270;2023-04-01T01:52:12;5.88;;;2.95;;
15536;SDS011;7870;52.448;13.270;2023-04-01T01:54:49;5.32;;;2.40;;
15536;SDS011;7870;52.448;13.270;2023-04-01T01:59:57;7.43;;;3.00;;
15536;SDS011;7870;52.448;13.270;2023-04-01T02:04:57;4.10;;;2.50;;
15536;SDS011;7870;52.448;13.270;2023-04-01T02:07:26;6.18;;;2.90;;
15536;SDS011;7870;52.448;13.270;2023-04-01T02:09:56;7.00;;;3.55;;
15536;SDS011;7870;52.448;13.270;2023-04-01T02:12:23;5.25;;;2.60;;
15536;SDS011;7870;52.448;13.270;2023-04-01T02:15:04;6.38;;;3.05;;
15536;SDS011;7870;52.448;13.270;2023-04-01T02:17:34;6.22;;;3.53;;
15536;SDS011;7870;52.448;13.270;2023-04-01T02:20:09;5.40;;;2.70;;
15536;SDS011;7870;52.448;13.270;2023-04-01T02:22:40;6.35;;;3.05;;
15536;SDS011;7870;52.448;13.270;2023-04-01T02:25:09;4.65;;;3.03;;
15536;SDS011;7870;52.448;13.270;2023-04-01T02:27:38;6.78;;;2.90;;
15536;SDS011;7870;52.448;13.270;2023-04-01T02:30:06;5.00;;;2.90;;
15536;SDS011;7870;52.448;13.270;2023-04-01T02:32:33;6.97;;;3.30;;
15536;SDS011;7870;52.448;13.270;2023-04-01T02:35:05;8.20;;;2.75;;
15536;SDS011;7870;52.448;13.270;2023-04-01T02:40:05;5.05;;;3.05;;
15536;SDS011;7870;52.448;13.270;2023-04-01T02:42:33;6.55;;;2.88;;
15536;SDS011;7870;52.448;13.270;2023-04-01T02:45:00;5.57;;;2.95;;
15536;SDS011;7870;52.448;13.270;2023-04-01T02:47:27;4.22;;;3.13;;
15536;SDS011;7870;52.448;13.270;2023-04-01T02:49:55;7.38;;;2.90;;
15536;SDS011;7870;52.448;13.270;2023-04-01T02:52:24;4.57;;;2.72;;
15536;SDS011;7870;52.448;13.270;2023-04-01T02:54:52;5.65;;;3.22;;
15536;SDS011;7870;52.448;13.270;2023-04-01T02:57:18;5.00;;;3.00;;
15536;SDS011;7870;52.448;13.270;2023-04-01T02:59:46;7.07;;;3.10;;
15536;SDS011;7870;52.448;13.270;2023-04-01T03:02:13;5.47;;;3.20;;
15536;SDS011;7870;52.448;13.270;2023-04-01T03:04:40;6.07;;;3.67;;
15536;SDS011;7870;52.448;13.270;2023-04-01T03:07:07;5.13;;;2.95;;
15536;SDS011;7870;52.448;13.270;2023-04-01T03:09:36;7.20;;;4.13;;
15536;SDS011;7870;52.448;13.270;2023-04-01T03:12:03;5.30;;;2.88;;
15536;SDS011;7870;52.448;13.270;2023-04-01T03:14:39;8.10;;;3.30;;
15536;SDS011;7870;52.448;13.270;2023-04-01T03:17:06;6.50;;;3.00;;
15536;SDS011;7870;52.448;13.270;2023-04-01T03:19:32;5.45;;;2.88;;
15536;SDS011;7870;52.448;13.270;2023-04-01T03:22:04;5.05;;;3.30;;
15536;SDS011;7870;52.448;13.270;2023-04-01T03:24:31;6.75;;;3.38;;
15536;SDS011;7870;52.448;13.270;2023-04-01T03:26:57;8.20;;;3.40;;
15536;SDS011;7870;52.448;13.270;2023-04-01T03:29:24;6.60;;;3.28;;
15536;SDS011;7870;52.448;13.270;2023-04-01T03:31:50;5.10;;;3.10;;
15536;SDS011;7870;52.448;13.270;2023-04-01T03:34:17;7.75;;;3.25;;
15536;SDS011;7870;52.448;13.270;2023-04-01T03:36:44;6.45;;;3.58;;
15536;SDS011;7870;52.448;13.270;2023-04-01T03:39:11;7.32;;;3.50;;
15536;SDS011;7870;52.448;13.270;2023-04-01T03:41:40;7.82;;;3.20;;
15536;SDS011;7870;52.448;13.270;2023-04-01T03:44:06;7.43;;;3.58;;
15536;SDS011;7870;52.448;13.270;2023-04-01T03:46:33;5.95;;;3.00;;
15536;SDS011;7870;52.448;13.270;2023-04-01T03:49:00;8.93;;;3.22;;
15536;SDS011;7870;52.448;13.270;2023-04-01T03:51:27;5.45;;;3.10;;
15536;SDS011;7870;52.448;13.270;2023-04-01T03:53:54;5.82;;;3.58;;
15536;SDS011;7870;52.448;13.270;2023-04-01T03:56:21;6.53;;;2.83;;
15536;SDS011;7870;52.448;13.270;2023-04-01T03:58:48;8.27;;;3.63;;
15536;SDS011;7870;52.448;13.270;2023-04-01T04:01:19;7.03;;;2.97;;
15536;SDS011;7870;52.448;13.270;2023-04-01T04:03:52;7.78;;;3.15;;
15536;SDS011;7870;52.448;13.270;2023-04-01T04:06:20;6.70;;;3.70;;
15536;SDS011;7870;52.448;13.270;2023-04-01T04:08:47;8.00;;;3.55;;
15536;SDS011;7870;52.448;13.270;2023-04-01T04:11:14;12.38;;;2.97;;
15536;SDS011;7870;52.448;13.270;2023-04-01T04:13:42;5.30;;;3.08;;
15536;SDS011;7870;52.448;13.270;2023-04-01T04:16:09;5.75;;;3.70;;
15536;SDS011;7870;52.448;13.270;2023-04-01T04:18:40;7.15;;;3.08;;
15536;SDS011;7870;52.448;13.270;2023-04-01T04:21:10;5.40;;;2.80;;
15536;SDS011;7870;52.448;13.270;2023-04-01T04:23:38;8.13;;;3.30;;
15536;SDS011;7870;52.448;13.270;2023-04-01T04:26:06;11.32;;;4.43;;
15536;SDS011;7870;52.448;13.270;2023-04-01T04:28:34;6.13;;;2.80;;
15536;SDS011;7870;52.448;13.270;2023-04-01T04:31:02;8.50;;;3.45;;
15536;SDS011;7870;52.448;13.270;2023-04-01T04:33:32;7.68;;;3.83;;
15536;SDS011;7870;52.448;13.270;2023-04-01T04:36:00;9.20;;;3.45;;
15536;SDS011;7870;52.448;13.270;2023-04-01T04:38:27;7.88;;;4.00;;
15536;SDS011;7870;52.448;13.270;2023-04-01T04:40:54;6.82;;;3.78;;
15536;SDS011;7870;52.448;13.270;2023-04-01T04:43:21;8.50;;;4.22;;
15536;SDS011;7870;52.448;13.270;2023-04-01T04:45:48;14.73;;;4.38;;
15536;SDS011;7870;52.448;13.270;2023-04-01T04:48:15;8.80;;;3.25;;
15536;SDS011;7870;52.448;13.270;2023-04-01T04:50:48;6.50;;;3.08;;
15536;SDS011;7870;52.448;13.270;2023-04-01T04:53:18;7.18;;;4.03;;
15536;SDS011;7870;52.448;13.270;2023-04-01T04:55:45;8.13;;;3.60;;
15536;SDS011;7870;52.448;13.270;2023-04-01T04:58:38;8.55;;;3.20;;
15536;SDS011;7870;52.448;13.270;2023-04-01T05:01:12;8.30;;;3.20;;
15536;SDS011;7870;52.448;13.270;2023-04-01T05:03:40;7.93;;;3.22;;
15536;SDS011;7870;52.448;13.270;2023-04-01T05:06:08;8.88;;;3.47;;
15536;SDS011;7870;52.448;13.270;2023-04-01T05:08:36;11.43;;;3.95;;
15536;SDS011;7870;52.448;13.270;2023-04-01T05:11:03;8.60;;;3.30;;
15536;SDS011;7870;52.448;13.270;2023-04-01T05:13:32;9.20;;;3.58;;
15536;SDS011;7870;52.448;13.270;2023-04-01T05:15:59;6.97;;;3.25;;
15536;SDS011;7870;52.448;13.270;2023-04-01T05:18:25;9.82;;;3.25;;
15536;SDS011;7870;52.448;13.270;2023-04-01T05:20:52;5.90;;;3.55;;
15536;SDS011;7870;52.448;13.270;2023-04-01T05:23:21;10.68;;;3.45;;
15536;SDS011;7870;52.448;13.270;2023-04-01T05:25:48;5.80;;;3.47;;
15536;SDS011;7870;52.448;13.270;2023-04-01T05:28:16;6.05;;;3.58;;
15536;SDS011;7870;52.448;13.270;2023-04-01T05:30:45;6.30;;;3.58;;
15536;SDS011;7870;52.448;13.270;2023-04-01T05:33:21;11.07;;;4.20;;
15536;SDS011;7870;52.448;13.270;2023-04-01T05:35:48;6.50;;;3.60;;
15536;SDS011;7870;52.448;13.270;2023-04-01T05:38:15;7.97;;;3.97;;
15536;SDS011;7870;52.448;13.270;2023-04-01T05:40:41;6.65;;;3.60;;
15536;SDS011;7870;52.448;13.270;2023-04-01T05:43:08;7.68;;;3.80;;
15536;SDS011;7870;52.448;13.270;2023-04-01T05:45:35;10.55;;;4.68;;
15536;SDS011;7870;52.448;13.270;2023-04-01T05:48:13;8.43;;;3.88;;
15536;SDS011;7870;52.448;13.270;2023-04-01T05:50:41;10.18;;;3.45;;
15536;SDS011;7870;52.448;13.270;2023-04-01T05:53:09;6.63;;;3.17;;
15536;SDS011;7870;52.448;13.270;2023-04-01T05:55:39;8.98;;;3.83;;
15536;SDS011;7870;52.448;13.270;2023-04-01T05:58:05;10.38;;;3.60;;
15536;SDS011;7870;52.448;13.270;2023-04-01T06:00:34;12.30;;;4.32;;
15536;SDS011;7870;52.448;13.270;2023-04-01T06:03:01;10.40;;;4.50;;
15536;SDS011;7870;52.448;13.270;2023-04-01T06:05:28;8.43;;;3.42;;
15536;SDS011;7870;52.448;13.270;2023-04-01T06:07:58;8.38;;;4.10;;
15536;SDS011;7870;52.448;13.270;2023-04-01T06:10:36;11.90;;;4.05;;
15536;SDS011;7870;52.448;13.270;2023-04-01T06:13:18;11.88;;;3.40;;
15536;SDS011;7870;52.448;13.270;2023-04-01T06:15:56;9.02;;;3.78;;
15536;SDS011;7870;52.448;13.270;2023-04-01T06:18:50;7.45;;;3.80;;
15536;SDS011;7870;52.448;13.270;2023-04-01T06:27:16;8.07;;;3.63;;
15536;SDS011;7870;52.448;13.270;2023-04-01T06:32:36;7.40;;;3.38;;
15536;SDS011;7870;52.448;13.270;2023-04-01T06:35:13;6.80;;;3.30;;
15536;SDS011;7870;52.448;13.270;2023-04-01T06:37:50;11.60;;;4.75;;
15536;SDS011;7870;52.448;13.270;2023-04-01T06:40:44;7.97;;;3.92;;
15536;SDS011;7870;52.448;13.270;2023-04-01T06:43:37;7.57;;;3.40;;
15536;SDS011;7870;52.448;13.270;2023-04-01T06:46:20;8.40;;;3.15;;
15536;SDS011;7870;52.448;13.270;2023-04-01T06:49:52;7.22;;;3.42;;
15536;SDS011;7870;52.448;13.270;2023-04-01T06:55:38;8.52;;;3.00;;
15536;SDS011;7870;52.448;13.270;2023-04-01T06:58:23;7.05;;;3.25;;
15536;SDS011;7870;52.448;13.270;2023-04-01T07:00:54;7.97;;;3.13;;
15536;SDS011;7870;52.448;13.270;2023-04-01T07:03:29;8.77;;;3.00;;
15536;SDS011;7870;52.448;13.270;2023-04-01T07:06:02;5.88;;;3.10;;
15536;SDS011;7870;52.448;13.270;2023-04-01T07:08:36;6.85;;;3.00;;
15536;SDS011;7870;52.448;13.270;2023-04-01T07:11:05;8.45;;;2.65;;
15536;SDS011;7870;52.448;13.270;2023-04-01T07:13:46;5.57;;;2.60;;
15536;SDS011;7870;52.448;13.270;2023-04-01T07:16:17;9.45;;;3.10;;
15536;SDS011;7870;52.448;13.270;2023-04-01T07:18:52;6.32;;;2.35;;
15536;SDS011;7870;52.448;13.270;2023-04-01T07:21:26;5.97;;;2.45;;
15536;SDS011;7870;52.448;13.270;2023-04-01T07:24:01;6.95;;;2.60;;
15536;SDS011;7870;52.448;13.270;2023-04-01T07:26:35;8.85;;;2.88;;
15536;SDS011;7870;52.448;13.270;2023-04-01T07:29:14;6.68;;;2.65;;
15536;SDS011;7870;52.448;13.270;2023-04-01T07:37:12;6.00;;;2.22;;
15536;SDS011;7870;52.448;13.270;2023-04-01T07:42:55;7.35;;;2.55;;
15536;SDS011;7870;52.448;13.270;2023-04-01T07:45:30;6.50;;;2.17;;
15536;SDS011;7870;52.448;13.270;2023-04-01T07:48:18;5.50;;;2.00;;
15536;SDS011;7870;52.448;13.270;2023-04-01T07:53:34;9.73;;;3.28;;
15536;SDS011;7870;52.448;13.270;2023-04-01T07:56:11;8.27;;;3.40;;
15536;SDS011;7870;52.448;13.270;2023-04-01T08:13:26;4.97;;;1.70;;
15536;SDS011;7870;52.448;13.270;2023-04-01T08:16:20;8.15;;;2.70;;
15536;SDS011;7870;52.448;13.270;2023-04-01T08:18:56;7.03;;;2.38;;
15536;SDS011;7870;52.448;13.270;2023-04-01T08:21:32;7.30;;;2.53;;
15536;SDS011;7870;52.448;13.270;2023-04-01T08:24:07;9.55;;;2.30;;
15536;SDS011;7870;52.448;13.270;2023-04-01T08:26:48;6.03;;;1.73;;
15536;SDS011;7870;52.448;13.270;2023-04-01T08:29:17;4.78;;;1.88;;
15536;SDS011;7870;52.448;13.270;2023-04-01T08:31:48;5.32;;;2.25;;
15536;SDS011;7870;52.448;13.270;2023-04-01T08:34:57;5.20;;;1.95;;
15536;SDS011;7870;52.448;13.270;2023-04-01T08:37:36;5.20;;;2.00;;
15536;SDS011;7870;52.448;13.270;2023-04-01T08:42:55;7.03;;;2.55;;
15536;SDS011;7870;52.448;13.270;2023-04-01T08:48:35;6.28;;;1.92;;
15536;SDS011;7870;52.448;13.270;2023-04-01T08:51:49;4.72;;;1.80;;
15536;SDS011;7870;52.448;13.270;2023-04-01T08:54:46;8.07;;;2.03;;
15536;SDS011;7870;52.448;13.270;2023-04-01T08:57:42;4.45;;;1.80;;
15536;SDS011;7870;52.448;13.270;2023-04-01T09:00:54;6.53;;;1.60;;
15536;SDS011;7870;52.448;13.270;2023-04-01T09:03:36;5.07;;;1.30;;
15536;SDS011;7870;52.448;13.270;2023-04-01T09:08:52;6.60;;;1.90;;
15536;SDS011;7870;52.448;13.270;2023-04-01T09:14:40;5.05;;;1.83;;
15536;SDS011;7870;52.448;13.270;2023-04-01T09:28:28;3.58;;;1.80;;
15536;SDS011;7870;52.448;13.270;2023-04-01T09:31:09;2.67;;;2.13;;
15536;SDS011;7870;52.448;13.270;2023-04-01T09:34:15;3.53;;;2.30;;
15536;SDS011;7870;52.448;13.270;2023-04-01T09:37:04;5.63;;;3.50;;
15536;SDS011;7870;52.448;13.270;2023-04-01T09:40:00;4.35;;;3.72;;
15536;SDS011;7870;52.448;13.270;2023-04-01T09:43:02;6.00;;;5.40;;
15536;SDS011;7870;52.448;13.270;2023-04-01T09:45:44;6.85;;;5.88;;
15536;SDS011;7870;52.448;13.270;2023-04-01T09:51:39;10.38;;;7.30;;
15536;SDS011;7870;52.448;13.270;2023-04-01T09:57:21;8.65;;;7.78;;
15536;SDS011;7870;52.448;13.270;2023-04-01T10:00:20;7.80;;;6.95;;
15536;SDS011;7870;52.448;13.270;2023-04-01T10:11:53;9.40;;;8.45;;
15536;SDS011;7870;52.448;13.270;2023-04-01T10:14:56;10.75;;;9.50;;
15536;SDS011;7870;52.448;13.270;2023-04-01T10:23:37;9.65;;;8.73;;
15536;SDS011;7870;52.448;13.270;2023-04-01T10:26:19;10.40;;;9.40;;
15536;SDS011;7870;52.448;13.270;2023-04-01T10:32:05;10.05;;;8.77;;
15536;SDS011;7870;52.448;13.270;2023-04-01T10:51:52;13.95;;;12.55;;
15536;SDS011;7870;52.448;13.270;2023-04-01T10:58:20;11.63;;;10.52;;
15536;SDS011;7870;52.448;13.270;2023-04-01T11:01:46;10.50;;;9.57;;
15536;SDS011;7870;52.448;13.270;2023-04-01T11:14:01;11.70;;;10.50;;
15536;SDS011;7870;52.448;13.270;2023-04-01T11:22:01;14.75;;;13.45;;
15536;SDS011;7870;52.448;13.270;2023-04-01T11:35:39;14.13;;;12.93;;
15536;SDS011;7870;52.448;13.270;2023-04-01T11:41:45;13.90;;;12.80;;
15536;SDS011;7870;52.448;13.270;2023-04-01T11:45:07;14.30;;;12.98;;
15536;SDS011;7870;52.448;13.270;2023-04-01T11:47:48;13.20;;;12.00;;
15536;SDS011;7870;52.448;13.270;2023-04-01T11:50:53;12.40;;;11.40;;
15536;SDS011;7870;52.448;13.270;2023-04-01T11:53:44;12.23;;;11.23;;
15536;SDS011;7870;52.448;13.270;2023-04-01T12:10:39;7.45;;;6.85;;
15536;SDS011;7870;52.448;13.270;2023-04-01T12:13:12;6.57;;;5.97;;
15536;SDS011;7870;52.448;13.270;2023-04-01T12:15:59;6.32;;;5.63;;
15536;SDS011;7870;52.448;13.270;2023-04-01T12:21:37;5.45;;;4.50;;
15536;SDS011;7870;52.448;13.270;2023-04-01T12:27:26;5.35;;;4.85;;
15536;SDS011;7870;52.448;13.270;2023-04-01T12:30:18;5.32;;;4.82;;
15536;SDS011;7870;52.448;13.270;2023-04-01T12:44:03;6.55;;;5.88;;
15536;SDS011;7870;52.448;13.270;2023-04-01T12:49:22;6.82;;;5.53;;
15536;SDS011;7870;52.448;13.270;2023-04-01T13:11:54;7.82;;;7.03;;
15536;SDS011;7870;52.448;13.270;2023-04-01T13:14:37;7.57;;;6.88;;
15536;SDS011;7870;52.448;13.270;2023-04-01T13:23:48;8.77;;;7.95;;
15536;SDS011;7870;52.448;13.270;2023-04-01T13:29:07;10.02;;;9.23;;
15536;SDS011;7870;52.448;13.270;2023-04-01T13:42:28;18.88;;;17.08;;
15536;SDS011;7870;52.448;13.270;2023-04-01T13:47:54;17.60;;;16.10;;
15536;SDS011;7870;52.448;13.270;2023-04-01T13:50:25;14.02;;;12.85;;
15536;SDS011;7870;52.448;13.270;2023-04-01T13:56:16;16.10;;;14.77;;
15536;SDS011;7870;52.448;13.270;2023-04-01T13:59:03;16.75;;;15.15;;
15536;SDS011;7870;52.448;13.270;2023-04-01T14:01:48;15.38;;;14.07;;
15536;SDS011;7870;52.448;13.270;2023-04-01T14:04:30;15.95;;;14.55;;
15536;SDS011;7870;52.448;13.270;2023-04-01T14:07:08;17.05;;;15.60;;
15536;SDS011;7870;52.448;13.270;2023-04-01T14:13:31;16.27;;;14.88;;
15536;SDS011;7870;52.448;13.270;2023-04-01T14:15:47;16.15;;;14.65;;
15536;SDS011;7870;52.448;13.270;2023-04-01T14:18:27;15.07;;;13.77;;
15536;SDS011;7870;52.448;13.270;2023-04-01T14:21:07;12.82;;;11.80;;
15536;SDS011;7870;52.448;13.270;2023-04-01T14:38:27;12.35;;;11.35;;
15536;SDS011;7870;52.448;13.270;2023-04-01T14:40:56;11.45;;;10.45;;
15536;SDS011;7870;52.448;13.270;2023-04-01T14:46:48;10.73;;;9.77;;
15536;SDS011;7870;52.448;13.270;2023-04-01T14:49:32;11.52;;;10.52;;
15536;SDS011;7870;52.448;13.270;2023-04-01T14:52:08;11.20;;;10.20;;
15536;SDS011;7870;52.448;13.270;2023-04-01T14:54:38;10.20;;;9.18;;
15536;SDS011;7870;52.448;13.270;2023-04-01T14:59:47;10.20;;;9.30;;
15536;SDS011;7870;52.448;13.270;2023-04-01T15:05:32;9.20;;;8.40;;
15536;SDS011;7870;52.448;13.270;2023-04-01T15:16:25;10.02;;;9.10;;
15536;SDS011;7870;52.448;13.270;2023-04-01T15:19:04;10.25;;;9.35;;
15536;SDS011;7870;52.448;13.270;2023-04-01T15:27:11;8.90;;;8.07;;
15536;SDS011;7870;52.448;13.270;2023-04-01T15:29:53;9.23;;;8.43;;
15536;SDS011;7870;52.448;13.270;2023-04-01T15:38:02;9.60;;;8.70;;
15536;SDS011;7870;52.448;13.270;2023-04-01T15:40:40;10.15;;;9.32;;
15536;SDS011;7870;52.448;13.270;2023-04-01T15:49:24;10.27;;;9.27;;
15536;SDS011;7870;52.448;13.270;2023-04-01T15:51:52;10.63;;;9.63;;
15536;SDS011;7870;52.448;13.270;2023-04-01T15:54:38;10.13;;;9.13;;
15536;SDS011;7870;52.448;13.270;2023-04-01T15:57:18;10.13;;;9.15;;
15536;SDS011;7870;52.448;13.270;2023-04-01T16:02:44;9.20;;;8.40;;
15536;SDS011;7870;52.448;13.270;2023-04-01T16:05:25;8.27;;;7.50;;
15536;SDS011;7870;52.448;13.270;2023-04-01T16:18:56;7.63;;;6.93;;
15536;SDS011;7870;52.448;13.270;2023-04-01T16:21:45;7.45;;;6.72;;
15536;SDS011;7870;52.448;13.270;2023-04-01T16:27:24;10.45;;;9.48;;
15536;SDS011;7870;52.448;13.270;2023-04-01T16:30:19;9.88;;;8.98;;
15536;SDS011;7870;52.448;13.270;2023-04-01T16:33:01;9.52;;;8.63;;
15536;SDS011;7870;52.448;13.270;2023-04-01T16:35:41;8.77;;;7.95;;
15536;SDS011;7870;52.448;13.270;2023-04-01T16:40:47;8.52;;;7.72;;
15536;SDS011;7870;52.448;13.270;2023-04-01T16:43:28;8.10;;;6.72;;
15536;SDS011;7870;52.448;13.270;2023-04-01T16:51:46;7.97;;;7.28;;
15536;SDS011;7870;52.448;13.270;2023-04-01T16:56:49;8.07;;;7.28;;
15536;SDS011;7870;52.448;13.270;2023-04-01T17:01:56;8.30;;;7.50;;
15536;SDS011;7870;52.448;13.270;2023-04-01T17:04:40;9.10;;;8.30;;
15536;SDS011;7870;52.448;13.270;2023-04-01T17:15:04;7.57;;;6.07;;
15536;SDS011;7870;52.448;13.270;2023-04-01T17:17:45;7.00;;;6.30;;
15536;SDS011;7870;52.448;13.270;2023-04-01T17:20:36;7.97;;;6.18;;
15536;SDS011;7870;52.448;13.270;2023-04-01T17:26:05;7.57;;;6.88;;
15536;SDS011;7870;52.448;13.270;2023-04-01T17:28:46;8.68;;;6.65;;
15536;SDS011;7870;52.448;13.270;2023-04-01T17:34:23;8.63;;;7.25;;
15536;SDS011;7870;52.448;13.270;2023-04-01T17:37:06;9.40;;;7.22;;
15536;SDS011;7870;52.448;13.270;2023-04-01T17:39:57;7.68;;;6.88;;
15536;SDS011;7870;52.448;13.270;2023-04-01T17:42:34;8.75;;;7.88;;
15536;SDS011;7870;52.448;13.270;2023-04-01T17:47:59;8.10;;;7.40;;
15536;SDS011;7870;52.448;13.270;2023-04-01T17:50:35;10.07;;;8.38;;
15536;SDS011;7870;52.448;13.270;2023-04-01T17:53:42;8.63;;;7.72;;
15536;SDS011;7870;52.448;13.270;2023-04-01T17:56:15;7.68;;;6.88;;
15536;SDS011;7870;52.448;13.270;2023-04-01T18:01:40;8.60;;;7.65;;
15536;SDS011;7870;52.448;13.270;2023-04-01T18:09:53;8.95;;;7.82;;
15536;SDS011;7870;52.448;13.270;2023-04-01T18:23:50;10.18;;;8.77;;
15536;SDS011;7870;52.448;13.270;2023-04-01T18:26:29;8.77;;;7.87;;
15536;SDS011;7870;52.448;13.270;2023-04-01T18:28:59;10.05;;;7.00;;
15536;SDS011;7870;52.448;13.270;2023-04-01T18:31:34;9.18;;;8.00;;
15536;SDS011;7870;52.448;13.270;2023-04-01T18:34:29;9.10;;;7.55;;
15536;SDS011;7870;52.448;13.270;2023-04-01T18:39:47;8.15;;;7.15;;
15536;SDS011;7870;52.448;13.270;2023-04-01T18:50:43;8.23;;;6.72;;
15536;SDS011;7870;52.448;13.270;2023-04-01T18:56:05;8.02;;;6.80;;
15536;SDS011;7870;52.448;13.270;2023-04-01T18:58:34;7.78;;;6.50;;
15536;SDS011;7870;52.448;13.270;2023-04-01T19:01:04;8.65;;;6.55;;
15536;SDS011;7870;52.448;13.270;2023-04-01T19:06:13;9.95;;;6.35;;
15536;SDS011;7870;52.448;13.270;2023-04-01T19:08:53;9.07;;;7.10;;
15536;SDS011;7870;52.448;13.270;2023-04-01T19:11:23;9.95;;;6.50;;
15536;SDS011;7870;52.448;13.270;2023-04-01T19:13:59;9.88;;;7.13;;
15536;SDS011;7870;52.448;13.270;2023-04-01T19:19:29;9.88;;;7.85;;
15536;SDS011;7870;52.448;13.270;2023-04-01T19:22:20;10.68;;;9.27;;
15536;SDS011;7870;52.448;13.270;2023-04-01T19:25:02;10.80;;;9.52;;
15536;SDS011;7870;52.448;13.270;2023-04-01T19:27:46;10.13;;;8.82;;
15536;SDS011;7870;52.448;13.270;2023-04-01T19:30:19;11.25;;;9.75;;
15536;SDS011;7870;52.448;13.270;2023-04-01T19:41:04;10.98;;;8.98;;
15536;SDS011;7870;52.448;13.270;2023-04-01T19:47:07;11.32;;;8.98;;
15536;SDS011;7870;52.448;13.270;2023-04-01T19:50:01;10.45;;;9.05;;
15536;SDS011;7870;52.448;13.270;2023-04-01T19:52:37;10.63;;;8.27;;
15536;SDS011;7870;52.448;13.270;2023-04-01T19:55:12;13.40;;;8.65;;
15536;SDS011;7870;52.448;13.270;2023-04-01T19:58:23;11.48;;;8.93;;
15536;SDS011;7870;52.448;13.270;2023-04-01T20:01:08;10.18;;;8.20;;
15536;SDS011;7870;52.448;13.270;2023-04-01T20:03:54;9.65;;;8.38;;
15536;SDS011;7870;52.448;13.270;2023-04-01T20:06:32;15.35;;;10.00;;
15536;SDS011;7870;52.448;13.270;2023-04-01T20:12:04;14.82;;;9.70;;
15536;SDS011;7870;52.448;13.270;2023-04-01T20:14:34;12.35;;;10.43;;
15536;SDS011;7870;52.448;13.270;2023-04-01T20:19:43;12.52;;;9.98;;
15536;SDS011;7870;52.448;13.270;2023-04-01T20:22:28;14.07;;;10.68;;
15536;SDS011;7870;52.448;13.270;2023-04-01T20:25:16;15.30;;;10.85;;
15536;SDS011;7870;52.448;13.270;2023-04-01T20:27:47;13.30;;;10.85;;
15536;SDS011;7870;52.448;13.270;2023-04-01T20:41:38;14.88;;;11.23;;
15536;SDS011;7870;52.448;13.270;2023-04-01T20:44:10;16.23;;;11.43;;
15536;SDS011;7870;52.448;13.270;2023-04-01T20:49:23;12.70;;;10.90;;
15536;SDS011;7870;52.448;13.270;2023-04-01T20:54:42;15.80;;;10.50;;
15536;SDS011;7870;52.448;13.270;2023-04-01T21:05:28;14.25;;;10.88;;
15536;SDS011;7870;52.448;13.270;2023-04-01T21:10:43;11.43;;;9.13;;
15536;SDS011;7870;52.448;13.270;2023-04-01T21:16:07;12.77;;;10.07;;
15536;SDS011;7870;52.448;13.270;2023-04-01T21:19:00;13.75;;;9.93;;
15536;SDS011;7870;52.448;13.270;2023-04-01T21:21:39;12.50;;;9.38;;
15536;SDS011;7870;52.448;13.270;2023-04-01T21:26:43;11.43;;;8.13;;
15536;SDS011;7870;52.448;13.270;2023-04-01T21:32:16;12.55;;;8.90;;
15536;SDS011;7870;52.448;13.270;2023-04-01T21:34:55;13.10;;;7.35;;
15536;SDS011;7870;52.448;13.270;2023-04-01T21:37:33;11.68;;;7.25;;
15536;SDS011;7870;52.448;13.270;2023-04-01T21:40:15;13.57;;;7.68;;
15536;SDS011;7870;52.448;13.270;2023-04-01T21:59:45;10.32;;;7.75;;
15536;SDS011;7870;52.448;13.270;2023-04-01T22:03:16;10.95;;;7.50;;
15536;SDS011;7870;52.448;13.270;2023-04-01T22:05:36;8.77;;;7.05;;
15536;SDS011;7870;52.448;13.270;2023-04-01T22:08:22;10.20;;;7.05;;
15536;SDS011;7870;52.448;13.270;2023-04-01T22:13:46;11.80;;;7.82;;
15536;SDS011;7870;52.448;13.270;2023-04-01T22:19:25;9.43;;;6.45;;
15536;SDS011;7870;52.448;13.270;2023-04-01T22:21:58;7.03;;;6.13;;
15536;SDS011;7870;52.448;13.270;2023-04-01T22:27:14;8.80;;;6.55;;
15536;SDS011;7870;52.448;13.270;2023-04-01T22:29:52;8.55;;;7.18;;
15536;SDS011;7870;52.448;13.270;2023-04-01T22:32:36;11.68;;;7.05;;
15536;SDS011;7870;52.448;13.270;2023-04-01T22:43:08;11.05;;;7.25;;
15536;SDS011;7870;52.448;13.270;2023-04-01T22:45:42;10.00;;;6.70;;
15536;SDS011;7870;52.448;13.270;2023-04-01T22:50:56;9.18;;;6.55;;
15536;SDS011;7870;52.448;13.270;2023-04-01T22:55:59;10.85;;;6.70;;
15536;SDS011;7870;52.448;13.270;2023-04-01T22:58:32;9.32;;;5.75;;
15536;SDS011;7870;52.448;13.270;2023-04-01T23:01:05;7.53;;;5.82;;
15536;SDS011;7870;52.448;13.270;2023-04-01T23:03:34;7.53;;;4.95;;
15536;SDS011;7870;52.448;13.270;2023-04-01T23:06:03;7.63;;;5.20;;
15536;SDS011;7870;52.448;13.270;2023-04-01T23:11:18;9.15;;;5.90;;
15536;SDS011;7870;52.448;13.270;2023-04-01T23:13:50;6.72;;;4.97;;
15536;SDS011;7870;52.448;13.270;2023-04-01T23:16:24;7.07;;;4.97;;
15536;SDS011;7870;52.448;13.270;2023-04-01T23:19:09;7.03;;;5.35;;
15536;SDS011;7870;52.448;13.270;2023-04-01T23:21:45;8.15;;;5.68;;
15536;SDS011;7870;52.448;13.270;2023-04-01T23:24:33;8.05;;;6.10;;